Batna Mostefa Ben Boulaid Airport

DABT · Batna, 阿尔及利亚

罗盘
风向 的 风向 230° Batna Airport 5/23
风: 5 kt, 2 beaufort

5 kt

改变
0 ft 1.000 2.000 3.000 4.000 5.000
没有观察到明显的云
METAR DABT 191100Z 23005KT 8000 NSC 38/M00 Q1020

METAR Batna Airport - DABT/BLJ

Batna Airport是,阿尔及利亚中的中型机场。 该机场位于纬度35,75186和经度6,30936。 该机场有一条跑道: 5/23. 本场的ICAO机场代码为DABT。 该机场的IATA代码为BLJ。 机场在Alger FIR中。

该航空气象观测是针对Batna Airport在2024年6月19日 12:00, 当地时间进行的。

机场观察

风向为230°,速度为5 kt。

可见度为8 km。

有没有观察到明显的云。 没有观察到天花板。

温度和风寒是38 °C。 海平面上的气压为1020 hPa (QNH)。

白天

今天,太阳从05:18升起,在19:53降落。 这适用于Batna Airport,世界夏令时可能有所不同。 当地时间与世界标准时间之间的时差为+1 小时。 夏令时目前正在进行中。

公司介绍

我们没有关于这个机场的公司信息。

体会

到Vliegles.nl去找飞行课程,跳伞和其他飞行体验。 浏览页面,了解Batna Airport附近所有可用的活动。 你也可以使用搜索功能来寻找你所在地附近的特定飞行课程、跳伞或其他飞行体验。

跑道

Id 标题 侧风 逆风 侧风 %
5/23 055°-235° 5 kt 9 %

逆风成分最大的方向会被突出显示,并用于横风计算。 这并不一定意味着这个方向在使用。

乌云

- NSC 没有观察到明显的云

温度 & 天气

温度 38 °C
露点 0 °C
相对湿度 9%
Kp-index 1 (0-9)

白天

日出
05:18
中午
12:36
日落
19:53 (7:09)

小工具

你想在你的网站上有一个关于Batna Airport的当前航空天气(METAR)的小部件吗?

显示HTML代码
报告变更